Time;durP1;ratioP1;P1;durP2;ratioP2;P2;SDS_P1;SDS_P2;PMS_P1;PMS_P2;Temp;Humidity;BMP_temperature;BMP_pressure;BME280_temperature;BME280_humidity;BME280_pressure;Samples;Min_cycle;Max_cycle;Signal;HPM_P1;HPM_P2
2022/03/16 00:00:12;;;;;;;67.95;26.05;;;;;;;0.49;100.00;102228.88;5006383;28;20026;-71
2022/03/16 00:02:40;;;;;;;63.25;23.35;;;;;;;0.46;100.00;102226.34;5007460;28;20076;-71
2022/03/16 00:05:06;;;;;;;58.22;23.38;;;;;;;0.37;100.00;102221.44;5007595;28;20057;-71
2022/03/16 00:07:31;;;;;;;59.63;21.50;;;;;;;0.35;100.00;102229.41;5007301;28;20065;-71
2022/03/16 00:09:57;;;;;;;66.38;24.40;;;;;;;0.30;100.00;102228.72;5007089;28;20045;-71
2022/03/16 00:12:22;;;;;;;54.63;20.67;;;;;;;0.28;100.00;102234.94;5007075;28;20065;-71
2022/03/16 00:14:48;;;;;;;55.73;21.10;;;;;;;0.30;100.00;102233.13;5005921;28;20033;-72
2022/03/16 00:17:14;;;;;;;62.05;22.95;;;;;;;0.30;100.00;102236.59;5007212;28;20300;-72
2022/03/16 00:19:40;;;;;;;63.22;23.70;;;;;;;0.30;100.00;102239.22;5005725;28;20108;-71
2022/03/16 00:22:06;;;;;;;70.80;24.63;;;;;;;0.36;100.00;102252.13;4989998;28;20026;-71
2022/03/16 00:24:32;;;;;;;54.80;22.08;;;;;;;0.31;100.00;102242.72;5005792;28;20125;-72
2022/03/16 00:26:57;;;;;;;58.15;21.83;;;;;;;0.29;100.00;102248.03;5006585;28;20519;-71
2022/03/16 00:29:23;;;;;;;61.42;23.75;;;;;;;0.37;100.00;102252.97;5005969;28;20091;-71
2022/03/16 00:31:48;;;;;;;74.87;24.87;;;;;;;0.41;100.00;102254.59;5006353;28;20080;-72
2022/03/16 00:34:14;;;;;;;63.95;25.63;;;;;;;0.45;100.00;102269.31;5006109;28;20033;-72
2022/03/16 00:36:39;;;;;;;74.45;24.27;;;;;;;0.44;100.00;102270.22;5007442;28;20422;-71
2022/03/16 00:39:05;;;;;;;84.07;30.13;;;;;;;0.59;100.00;102281.94;5005892;28;20450;-71
2022/03/16 00:41:35;;;;;;;91.63;30.60;;;;;;;0.71;100.00;102304.25;5007443;28;20594;-72
2022/03/16 00:44:00;;;;;;;112.43;32.97;;;;;;;0.63;100.00;102308.03;5005130;28;20045;-71
2022/03/16 00:46:26;;;;;;;63.97;26.10;;;;;;;0.62;100.00;102308.06;5005968;28;20037;-71
2022/03/16 00:48:53;;;;;;;62.00;26.08;;;;;;;0.65;100.00;102309.72;5005785;28;20033;-71
2022/03/16 00:51:18;;;;;;;64.05;25.63;;;;;;;0.66;100.00;102316.72;4989703;28;20498;-71
2022/03/16 00:53:45;;;;;;;87.40;23.07;;;;;;;0.55;100.00;102319.75;5005730;28;20065;-71
2022/03/16 00:56:11;;;;;;;55.97;21.13;;;;;;;0.44;100.00;102333.28;5007231;28;20050;-71
2022/03/16 00:58:37;;;;;;;;;;;;;;;0.09;100.00;102332.81;5005849;28;20045;-71
2022/03/16 01:01:05;;;;;;;99.50;25.15;;;;;;;0.06;100.00;102335.56;5005752;28;19920;-71
2022/03/16 01:03:30;;;;;;;108.97;23.45;;;;;;;-0.18;100.00;102334.69;5006827;28;20054;-71
2022/03/16 01:05:56;;;;;;;69.47;22.67;;;;;;;-0.19;100.00;102345.25;5005577;28;20169;-71
2022/03/16 01:08:22;;;;;;;90.97;26.10;;;;;;;-0.14;100.00;102341.56;5005520;28;20036;-71
2022/03/16 01:10:47;;;;;;;74.75;24.90;;;;;;;-0.25;100.00;102354.19;4989124;28;20037;-71
2022/03/16 01:13:13;;;;;;;106.15;25.42;;;;;;;-0.34;100.00;102354.50;5006804;28;20484;-71
2022/03/16 01:15:40;;;;;;;136.05;25.25;;;;;;;-0.36;100.00;102358.94;5005314;28;20075;-71
2022/03/16 01:18:05;;;;;;;152.13;27.58;;;;;;;-0.25;100.00;102364.69;4989114;28;20455;-71
2022/03/16 01:20:31;;;;;;;145.50;25.80;;;;;;;-0.45;100.00;102358.34;5005262;28;20076;-70
2022/03/16 01:22:56;;;;;;;73.97;22.52;;;;;;;-0.41;100.00;102356.47;4989094;28;20368;-71
2022/03/16 01:25:23;;;;;;;88.68;23.33;;;;;;;-0.28;100.00;102360.41;5005237;28;20041;-71
2022/03/16 01:27:50;;;;;;;201.70;26.70;;;;;;;-0.49;100.00;102369.88;5005379;28;20022;-71
2022/03/16 01:30:15;;;;;;;55.28;21.75;;;;;;;-0.37;100.00;102370.38;5004294;28;20104;-71
2022/03/16 01:32:42;;;;;;;60.53;20.63;;;;;;;-0.20;100.00;102386.38;5005343;28;20140;-71
2022/03/16 01:35:09;;;;;;;241.32;29.40;;;;;;;-0.48;100.00;102370.72;5005333;28;20132;-70
2022/03/16 01:37:34;;;;;;;191.45;28.70;;;;;;;-0.68;100.00;102366.13;5005256;28;20030;-71
2022/03/16 01:40:01;;;;;;;57.72;18.95;;;;;;;-0.54;100.00;102379.66;5004739;28;20036;-71
2022/03/16 01:42:26;;;;;;;237.27;36.63;;;;;;;-0.51;100.00;102379.56;5005240;28;20468;-71
2022/03/16 01:44:55;;;;;;;116.95;25.08;;;;;;;-0.50;100.00;102386.50;5006245;28;20045;-70
2022/03/16 01:47:22;;;;;;;132.52;26.55;;;;;;;-0.52;100.00;102393.56;5006619;28;20466;-70
2022/03/16 01:49:49;;;;;;;91.40;23.75;;;;;;;-0.43;100.00;102403.75;5004828;28;20038;-71
2022/03/16 01:52:18;;;;;;;271.83;34.80;;;;;;;-0.45;100.00;102396.84;5006376;28;20030;-70
2022/03/16 01:54:45;;;;;;;61.97;23.67;;;;;;;-0.34;100.00;102404.38;5006109;28;20584;-71
2022/03/16 01:57:11;;;;;;;82.38;22.27;;;;;;;-0.43;100.00;102409.00;5008879;28;20030;-71
2022/03/16 01:59:39;;;;;;;174.55;33.15;;;;;;;-0.34;100.00;102407.84;5008543;28;20034;-71
2022/03/16 02:02:05;;;;;;;116.97;23.15;;;;;;;-0.21;100.00;102418.81;5009043;28;20467;-70
2022/03/16 02:04:31;;;;;;;49.60;20.02;;;;;;;-0.19;100.00;102419.59;5008589;28;20119;-71
2022/03/16 02:06:57;;;;;;;99.88;21.40;;;;;;;-0.10;100.00;102419.28;5010044;28;20594;-71
2022/03/16 02:09:23;;;;;;;;;;;;;;;-0.16;100.00;102432.63;5008826;28;20037;-71
2022/03/16 02:11:49;;;;;;;93.32;20.02;;;;;;;-0.14;100.00;102427.31;5010111;28;19909;-70
2022/03/16 02:14:14;;;;;;;;;;;;;;;-0.06;100.00;102433.19;5009162;28;20124;-71
2022/03/16 02:16:39;;;;;;;304.83;30.35;;;;;;;-0.06;100.00;102435.81;5009759;28;20021;-71
2022/03/16 02:19:05;;;;;;;137.90;21.63;;;;;;;-0.31;100.00;102441.00;5008512;28;20064;-71
2022/03/16 02:21:35;;;;;;;196.83;26.73;;;;;;;-0.32;100.00;102436.69;5009788;28;20276;-71
2022/03/16 02:24:02;;;;;;;140.45;25.35;;;;;;;-0.31;100.00;102418.25;5008453;28;20030;-71
2022/03/16 02:26:28;;;;;;;138.82;26.80;;;;;;;-0.22;100.00;102424.97;5008541;28;20025;-71
2022/03/16 02:28:54;;;;;;;157.00;27.07;;;;;;;-0.18;100.00;102418.69;5009589;28;20743;-70
2022/03/16 02:31:20;;;;;;;201.60;28.02;;;;;;;-0.19;100.00;102421.38;5009137;28;20697;-71
2022/03/16 02:33:45;;;;;;;106.78;23.30;;;;;;;-0.35;100.00;102428.88;5008342;28;20030;-71
2022/03/16 02:36:11;;;;;;;72.10;20.15;;;;;;;-0.23;100.00;102426.72;5009461;28;20100;-71
2022/03/16 02:38:36;;;;;;;48.67;17.93;;;;;;;-0.10;100.00;102428.94;5009417;28;20034;-71
2022/03/16 02:41:02;;;;;;;59.20;21.75;;;;;;;-0.02;100.00;102442.66;5008232;28;20289;-71
2022/03/16 02:43:28;;;;;;;45.13;19.65;;;;;;;0.05;100.00;102440.66;5008210;28;20068;-71
2022/03/16 02:45:54;;;;;;;44.10;19.10;;;;;;;0.07;100.00;102441.47;5007907;28;20550;-71
2022/03/16 02:48:20;;;;;;;50.95;17.38;;;;;;;0.04;100.00;102444.22;5008049;28;20562;-71
2022/03/16 02:50:46;;;;;;;47.00;17.63;;;;;;;0.04;100.00;102433.72;5008962;28;20117;-71
2022/03/16 02:53:11;;;;;;;48.63;17.75;;;;;;;-0.02;100.00;102430.41;5009295;28;20785;-71
2022/03/16 02:55:37;;;;;;;43.33;16.92;;;;;;;-0.01;100.00;102437.34;5007908;28;20076;-71
2022/03/16 02:58:02;;;;;;;40.83;16.55;;;;;;;0.02;100.00;102438.16;5002182;28;20390;-70
2022/03/16 03:00:28;;;;;;;55.72;16.30;;;;;;;-0.01;100.00;102436.50;5007384;28;20034;-71
2022/03/16 03:02:54;;;;;;;49.10;15.10;;;;;;;-0.04;100.00;102433.97;4991580;28;20029;-71
2022/03/16 03:05:20;;;;;;;42.05;15.45;;;;;;;-0.06;100.00;102431.41;5008928;28;20049;-71
2022/03/16 03:07:45;;;;;;;34.80;14.45;;;;;;;-0.10;100.00;102432.41;5008115;28;20022;-71
2022/03/16 03:10:11;;;;;;;265.57;33.77;;;;;;;-0.36;100.00;102427.19;5007412;28;20165;-71
2022/03/16 03:12:36;;;;;;;41.25;16.33;;;;;;;-0.51;100.00;102421.53;5007505;28;20065;-71
2022/03/16 03:15:04;;;;;;;122.57;20.88;;;;;;;-0.50;100.00;102419.75;5007580;28;20426;-71
2022/03/16 03:17:29;;;;;;;58.75;17.15;;;;;;;-0.48;100.00;102416.19;5007498;28;20144;-71
2022/03/16 03:19:55;;;;;;;49.88;15.95;;;;;;;-0.36;100.00;102421.94;5007259;28;20467;-71
2022/03/16 03:22:20;;;;;;;61.53;17.83;;;;;;;-0.26;100.00;102421.59;5008916;28;20042;-71
2022/03/16 03:24:45;;;;;;;66.47;15.93;;;;;;;-0.17;100.00;102428.28;5007530;28;20068;-71
2022/03/16 03:27:11;;;;;;;219.13;29.27;;;;;;;-0.17;100.00;102425.66;5007313;28;20384;-70
2022/03/16 03:29:37;;;;;;;35.85;14.98;;;;;;;-0.11;100.00;102420.19;5007716;28;20061;-71
2022/03/16 03:32:02;;;;;;;52.92;15.52;;;;;;;-0.07;100.00;102421.81;5008730;28;20073;-71
2022/03/16 03:34:28;;;;;;;86.60;17.83;;;;;;;-0.04;100.00;102413.81;5007263;28;20022;-70
2022/03/16 03:36:53;;;;;;;61.07;17.33;;;;;;;-0.02;100.00;102408.53;4991074;28;20056;-71
2022/03/16 03:39:19;;;;;;;50.73;16.07;;;;;;;-0.02;100.00;102404.13;5007227;28;20029;-71
2022/03/16 03:41:44;;;;;;;42.85;14.68;;;;;;;0.02;100.00;102396.13;5007116;28;20276;-71
2022/03/16 03:44:09;;;;;;;43.88;16.30;;;;;;;0.01;100.00;102399.69;5006701;28;20495;-71
2022/03/16 03:46:35;;;;;;;126.57;18.80;;;;;;;-0.03;100.00;102386.66;5006996;28;20021;-71
2022/03/16 03:49:00;;;;;;;60.67;16.03;;;;;;;0.07;100.00;102388.94;5008099;28;20844;-70
2022/03/16 03:51:26;;;;;;;46.73;14.43;;;;;;;0.06;100.00;102380.22;5008501;28;20029;-71
2022/03/16 03:53:51;;;;;;;262.77;26.48;;;;;;;-0.48;100.00;102362.84;5008164;28;20334;-71
2022/03/16 03:56:17;;;;;;;109.80;16.13;;;;;;;-0.94;100.00;102362.56;5006942;28;20181;-71
2022/03/16 03:58:42;;;;;;;249.88;26.52;;;;;;;-1.01;100.00;102366.28;4990134;28;20330;-70
2022/03/16 04:01:08;;;;;;;263.15;27.23;;;;;;;-0.94;100.00;102369.59;5006956;28;20566;-71
2022/03/16 04:03:34;;;;;;;239.23;23.27;;;;;;;-1.01;100.00;102366.28;5007865;28;20034;-70
2022/03/16 04:05:59;;;;;;;;;;;;;;;-0.90;100.00;102377.31;5007148;28;20113;-71
2022/03/16 04:08:25;;;;;;;146.25;19.58;;;;;;;-0.85;100.00;102385.88;5007824;28;20638;-71
2022/03/16 04:10:51;;;;;;;158.00;19.88;;;;;;;-0.91;100.00;102393.97;5006367;28;20033;-71
2022/03/16 04:13:16;;;;;;;35.40;13.23;;;;;;;-1.00;100.00;102382.91;5006801;28;20211;-71
2022/03/16 04:15:42;;;;;;;36.53;13.10;;;;;;;-1.01;100.00;102392.50;5005439;28;20034;-71
2022/03/16 04:18:07;;;;;;;40.20;14.15;;;;;;;-0.94;100.00;102396.66;5007304;28;20172;-71
2022/03/16 04:20:32;;;;;;;48.60;13.60;;;;;;;-1.03;100.00;102393.47;5005811;28;20037;-71
2022/03/16 04:22:58;;;;;;;61.80;15.10;;;;;;;-1.29;100.00;102389.88;5007123;28;20034;-70
2022/03/16 04:25:23;;;;;;;82.32;16.88;;;;;;;-1.32;100.00;102397.84;5037342;23;20191;-84
2022/03/16 04:27:49;;;;;;;88.70;17.23;;;;;;;-1.31;100.00;102408.28;5049418;28;20095;-84
2022/03/16 04:30:14;;;;;;;158.40;20.88;;;;;;;-1.42;100.00;102415.59;5014858;28;20029;-83
2022/03/16 04:32:39;;;;;;;90.78;17.83;;;;;;;-1.48;100.00;102410.53;5015035;28;20564;-83
2022/03/16 04:35:06;;;;;;;177.23;24.60;;;;;;;-1.43;100.00;102421.72;5032880;28;20044;-83
2022/03/16 04:37:32;;;;;;;37.75;15.20;;;;;;;-1.22;100.00;102435.09;5015822;28;20759;-83
2022/03/16 04:39:58;;;;;;;139.68;23.52;;;;;;;-1.32;100.00;102424.91;5016002;28;20032;-83
2022/03/16 04:42:24;;;;;;;82.78;16.65;;;;;;;-1.13;100.00;102437.47;5015548;28;20085;-83
2022/03/16 04:44:49;;;;;;;41.38;14.85;;;;;;;-1.01;100.00;102442.31;5032061;28;20049;-83
2022/03/16 04:47:14;;;;;;;42.13;16.10;;;;;;;-0.93;100.00;102447.38;5016773;28;20461;-83
2022/03/16 04:49:40;;;;;;;193.05;23.90;;;;;;;-1.16;100.00;102441.03;5031451;28;20401;-83
2022/03/16 04:52:05;;;;;;;203.60;26.63;;;;;;;-1.32;100.00;102448.47;5015588;28;20053;-83
2022/03/16 04:54:31;;;;;;;46.45;16.15;;;;;;;-1.08;100.00;102457.41;5031196;28;20014;-84
2022/03/16 04:56:56;;;;;;;43.35;18.20;;;;;;;-0.94;100.00;102462.22;5032453;28;20044;-84
2022/03/16 04:59:22;;;;;;;60.28;18.77;;;;;;;-1.04;100.00;102454.69;5031184;28;20087;-83
2022/03/16 05:01:47;;;;;;;56.95;16.33;;;;;;;-1.27;100.00;102446.59;5031879;28;20041;-83
2022/03/16 05:04:13;;;;;;;101.10;18.52;;;;;;;-1.05;100.00;102464.31;5031399;28;20116;-84
2022/03/16 05:06:38;;;;;;;69.53;19.05;;;;;;;-1.17;100.00;102448.94;5015547;28;20052;-83
2022/03/16 05:09:03;;;;;;;58.63;15.23;;;;;;;-1.25;100.00;102448.31;5030915;28;20076;-83
2022/03/16 05:11:29;;;;;;;82.60;18.70;;;;;;;-1.29;100.00;102461.50;5031039;28;20288;-83
2022/03/16 05:13:56;;;;;;;74.00;16.07;;;;;;;-1.36;100.00;102461.72;5030871;28;20071;-83
2022/03/16 05:16:21;;;;;;;139.35;18.27;;;;;;;-1.40;100.00;102468.81;5029839;28;20291;-82
2022/03/16 05:18:47;;;;;;;214.25;26.13;;;;;;;-1.42;100.00;102468.00;5028952;28;20223;-84
2022/03/16 05:21:13;;;;;;;69.87;17.80;;;;;;;-1.44;100.00;102484.66;5028588;28;20053;-82
2022/03/16 05:23:40;;;;;;;312.55;30.48;;;;;;;-1.58;100.00;102474.56;5011841;28;20310;-83
2022/03/16 05:26:06;;;;;;;48.85;15.55;;;;;;;-1.28;100.00;102484.19;5012134;28;20029;-81
2022/03/16 05:28:31;;;;;;;130.88;19.70;;;;;;;-1.24;100.00;102484.97;5012296;28;20017;-83
2022/03/16 05:30:57;;;;;;;70.18;16.90;;;;;;;-1.18;100.00;102491.78;5027734;28;20042;-83
2022/03/16 05:33:23;;;;;;;144.82;20.88;;;;;;;-1.17;100.00;102502.25;5012586;28;20561;-84
2022/03/16 05:35:49;;;;;;;162.07;25.17;;;;;;;-1.24;100.00;102486.72;5012447;28;20041;-82
2022/03/16 05:38:14;;;;;;;78.75;16.08;;;;;;;-1.14;100.00;102501.28;5030327;28;20052;-82
2022/03/16 05:40:43;;;;;;;251.43;26.40;;;;;;;-1.42;100.00;102483.72;5031373;28;20118;-83
2022/03/16 05:43:10;;;;;;;149.52;20.33;;;;;;;-1.23;100.00;102498.94;5013676;28;20772;-83
2022/03/16 05:45:36;;;;;;;60.95;15.18;;;;;;;-1.18;100.00;102491.78;5030216;28;20085;-84
2022/03/16 05:48:02;;;;;;;100.10;20.15;;;;;;;-1.31;100.00;102489.53;5030090;28;20726;-84
2022/03/16 05:50:28;;;;;;;;;;;;;;;-1.46;100.00;102481.22;5013625;28;20033;-83
2022/03/16 05:53:01;;;;;;;320.70;32.25;;;;;;;-1.62;100.00;102486.00;5030554;28;20409;-83
2022/03/16 05:55:27;;;;;;;476.33;40.78;;;;;;;-1.60;100.00;102490.31;5030753;28;20180;-82
2022/03/16 05:57:52;;;;;;;65.60;18.77;;;;;;;-1.37;100.00;102497.53;5014422;28;20490;-83
2022/03/16 06:00:22;;;;;;;67.88;17.17;;;;;;;-1.21;100.00;102507.63;5031296;28;20441;-82
2022/03/16 06:02:49;;;;;;;183.02;21.70;;;;;;;-1.30;100.00;102498.25;5031679;28;20065;-83
2022/03/16 06:05:16;;;;;;;96.60;21.15;;;;;;;-1.30;100.00;102499.09;5030008;28;20079;-83
2022/03/16 06:07:42;;;;;;;105.25;17.95;;;;;;;-1.10;100.00;102505.50;5030813;28;20497;-83
2022/03/16 06:10:10;;;;;;;124.30;21.23;;;;;;;-1.36;100.00;102493.16;5030428;28;20125;-83
2022/03/16 06:12:57;;;;;;;180.52;20.60;;;;;;;-1.32;100.00;102503.50;5030866;28;20036;-84
2022/03/16 06:15:24;;;;;;;93.20;21.02;;;;;;;-1.22;100.00;102504.09;5030841;28;20121;-84
2022/03/16 06:17:59;;;;;;;67.68;16.17;;;;;;;-0.98;100.00;102531.41;5031385;28;20025;-83
2022/03/16 06:20:26;;;;;;;102.70;18.50;;;;;;;-0.94;100.00;102538.25;5030954;28;20041;-84
2022/03/16 06:22:52;;;;;;;80.75;15.70;;;;;;;-0.86;100.00;102541.53;5030983;28;20268;-84
2022/03/16 06:25:18;;;;;;;63.65;16.55;;;;;;;-0.77;100.00;102544.75;5014464;28;20060;-83
2022/03/16 06:27:43;;;;;;;181.07;22.73;;;;;;;-0.64;100.00;102557.47;5014800;28;20033;-82
2022/03/16 06:30:09;;;;;;;189.68;27.55;;;;;;;-0.71;100.00;102555.09;5015451;28;20040;-84
2022/03/16 06:32:35;;;;;;;195.07;23.40;;;;;;;-0.81;100.00;102557.13;5014653;28;20048;-83
2022/03/16 06:35:03;;;;;;;174.30;23.42;;;;;;;-0.79;100.00;102560.56;5031479;28;20059;-83
2022/03/16 06:37:28;;;;;;;191.77;21.95;;;;;;;-0.61;100.00;102569.63;5029837;28;20485;-82
2022/03/16 06:39:54;;;;;;;214.30;27.60;;;;;;;-0.54;100.00;102558.09;5028338;28;20033;-82
2022/03/16 06:42:19;;;;;;;215.73;26.33;;;;;;;-0.66;100.00;102563.69;5028971;28;20026;-83
2022/03/16 06:44:44;;;;;;;215.05;22.73;;;;;;;-0.37;100.00;102575.94;5015490;28;20087;-83
2022/03/16 06:47:10;;;;;;;278.80;29.53;;;;;;;-0.44;100.00;102570.00;5032022;28;20506;-82
2022/03/16 06:49:36;;;;;;;451.58;39.58;;;;;;;-0.71;100.00;102576.06;5031833;28;20315;-81
2022/03/16 06:52:01;;;;;;;209.23;24.42;;;;;;;-0.46;100.00;102578.84;5031922;28;20783;-83
2022/03/16 06:54:28;;;;;;;209.13;22.90;;;;;;;-0.36;100.00;102574.16;5031753;28;20037;-84
2022/03/16 06:56:54;;;;;;;159.30;23.55;;;;;;;-0.17;100.00;102587.56;5015340;28;20028;-82
2022/03/16 06:59:19;;;;;;;92.43;17.53;;;;;;;-0.08;100.00;102593.38;5031898;28;20116;-83
2022/03/16 07:01:46;;;;;;;146.43;20.73;;;;;;;-0.14;100.00;102590.09;5014336;28;20462;-82
2022/03/16 07:04:11;;;;;;;211.40;24.38;;;;;;;-0.11;100.00;102595.28;5015409;28;20788;-82
2022/03/16 07:06:36;;;;;;;124.73;21.60;;;;;;;0.07;100.00;102596.44;5015430;28;20043;-83
2022/03/16 07:09:02;;;;;;;122.65;19.55;;;;;;;0.19;100.00;102591.66;5015320;28;20500;-84
2022/03/16 07:11:28;;;;;;;175.38;24.67;;;;;;;0.23;100.00;102592.41;5015032;28;20056;-83
2022/03/16 07:16:37;;;;;;;82.95;17.40;;;;;;;0.22;100.00;102597.72;5031323;28;20498;-84
2022/03/16 07:19:03;;;;;;;61.70;16.83;;;;;;;0.49;100.00;102609.06;5014502;28;20112;-84
2022/03/16 07:21:28;;;;;;;53.73;16.27;;;;;;;0.59;100.00;102607.84;5030857;28;20682;-82
2022/03/16 07:23:53;;;;;;;140.35;20.27;;;;;;;0.64;100.00;102605.94;5030440;28;20025;-83
2022/03/16 07:26:19;;;;;;;137.57;20.97;;;;;;;0.59;100.00;102599.97;5013449;28;20066;-82
2022/03/16 07:28:44;;;;;;;77.13;14.77;;;;;;;0.61;100.00;102606.03;5013249;28;20260;-83
2022/03/16 07:31:10;;;;;;;157.43;22.00;;;;;;;0.63;100.00;102606.81;5031483;28;20029;-83
2022/03/16 07:33:35;;;;;;;69.68;15.65;;;;;;;0.69;100.00;102609.25;5029509;28;20795;-83
2022/03/16 07:36:02;;;;;;;73.63;16.52;;;;;;;0.93;100.00;102601.41;5013320;28;20060;-82
2022/03/16 07:38:27;;;;;;;73.32;15.55;;;;;;;1.21;100.00;102606.53;5013317;28;20026;-84
2022/03/16 07:40:53;;;;;;;106.03;15.63;;;;;;;1.41;100.00;102613.69;5030657;28;20117;-83
2022/03/16 07:43:19;;;;;;;51.65;14.63;;;;;;;1.39;100.00;102602.38;5013827;28;20815;-84
2022/03/16 07:45:52;;;;;;;111.17;16.87;;;;;;;1.14;100.00;102598.00;5030549;28;20036;-83
2022/03/16 07:48:18;;;;;;;101.80;17.75;;;;;;;1.02;100.00;102582.66;5013742;28;20707;-83
2022/03/16 07:50:43;;;;;;;65.37;14.97;;;;;;;1.21;100.00;102582.84;5013819;28;20025;-84
2022/03/16 07:53:08;;;;;;;50.30;14.30;;;;;;;1.62;100.00;102594.44;5013770;28;20037;-83
2022/03/16 07:55:34;;;;;;;62.60;15.57;;;;;;;1.73;100.00;102598.44;5030515;28;20586;-84
2022/03/16 07:57:59;;;;;;;69.05;16.73;;;;;;;1.76;100.00;102596.53;5014136;28;20033;-83
2022/03/16 08:00:25;;;;;;;58.47;14.18;;;;;;;1.88;100.00;102600.47;5012917;28;20030;-83
2022/03/16 08:02:53;;;;;;;54.63;12.73;;;;;;;1.82;100.00;102595.44;5032228;28;20037;-84
2022/03/16 08:05:21;;;;;;;63.22;16.13;;;;;;;1.51;100.00;102591.38;5033943;28;20567;-84
2022/03/16 08:07:47;;;;;;;80.68;15.68;;;;;;;1.63;100.00;102579.50;5033525;28;20203;-83
2022/03/16 08:10:12;;;;;;;98.32;16.98;;;;;;;1.61;100.00;102587.44;5016115;28;20029;-84
2022/03/16 08:12:38;;;;;;;41.90;11.57;;;;;;;1.71;100.00;102587.09;5020859;28;20036;-84
2022/03/16 08:15:06;;;;;;;35.90;13.10;;;;;;;2.01;100.00;102601.69;5035883;28;20021;-84
2022/03/16 08:17:32;;;;;;;42.72;13.13;;;;;;;2.17;100.00;102595.78;5013505;28;20755;-83
2022/03/16 08:19:57;;;;;;;57.15;13.43;;;;;;;1.97;100.00;102591.34;5013174;28;20180;-83
2022/03/16 08:22:31;;;;;;;50.03;12.93;;;;;;;1.99;100.00;102585.09;5031101;28;20489;-83
2022/03/16 08:25:00;;;;;;;41.28;12.73;;;;;;;1.99;100.00;102582.47;5030952;28;20068;-83
2022/03/16 08:27:26;;;;;;;49.00;12.38;;;;;;;2.28;100.00;102583.03;5017674;28;20053;-83
2022/03/16 08:29:52;;;;;;;34.40;10.25;;;;;;;2.30;100.00;102570.66;5035182;28;20037;-82
2022/03/16 08:32:20;;;;;;;33.15;11.52;;;;;;;2.29;100.00;102576.84;5035065;28;20037;-83
2022/03/16 08:34:46;;;;;;;74.28;14.68;;;;;;;1.90;100.00;102561.75;5034388;28;20481;-83
2022/03/16 08:37:11;;;;;;;47.00;13.70;;;;;;;1.90;100.00;102556.50;5034776;28;20030;-82
2022/03/16 08:39:40;;;;;;;53.83;15.70;;;;;;;2.00;100.00;102563.09;5034330;28;20095;-83
2022/03/16 08:42:07;;;;;;;43.13;12.15;;;;;;;2.06;100.00;102561.97;5034510;28;20041;-82
2022/03/16 08:44:33;;;;;;;35.35;12.20;;;;;;;2.21;100.00;102563.13;5017385;28;20037;-83
2022/03/16 08:46:59;;;;;;;48.92;14.02;;;;;;;2.17;100.00;102556.28;5018199;28;20092;-84
2022/03/16 08:49:24;;;;;;;31.00;12.20;;;;;;;2.35;100.00;102555.50;5013320;28;20049;-82
2022/03/16 08:51:50;;;;;;;40.20;11.85;;;;;;;2.52;100.00;102563.53;5030338;28;20061;-83
2022/03/16 08:54:16;;;;;;;36.45;11.90;;;;;;;2.32;100.00;102550.38;5033403;28;20079;-82
2022/03/16 08:56:44;;;;;;;32.88;12.43;;;;;;;2.39;100.00;102543.91;5017197;28;20044;-84
2022/03/16 08:59:10;;;;;;;28.00;12.13;;;;;;;2.72;100.00;102553.91;5016583;28;20021;-82
2022/03/16 09:01:36;;;;;;;;;;;;;;;2.84;100.00;102556.00;5033477;28;20041;-82
2022/03/16 09:04:02;;;;;;;25.50;9.80;;;;;;;2.71;100.00;102546.91;5032155;28;19923;-83
2022/03/16 09:06:28;;;;;;;26.50;11.38;;;;;;;3.01;100.00;102551.75;5032429;28;20048;-83
2022/03/16 09:08:53;;;;;;;;;;;;;;;2.84;100.00;102545.47;5033067;28;20038;-84
2022/03/16 09:11:19;;;;;;;31.83;13.20;;;;;;;2.91;100.00;102536.34;5032853;28;19917;-83
2022/03/16 09:13:44;;;;;;;30.03;11.20;;;;;;;2.87;100.00;102518.94;5033131;28;20057;-82
2022/03/16 09:16:09;;;;;;;32.13;11.23;;;;;;;2.85;100.00;102526.06;5032903;28;20038;-82
2022/03/16 09:18:35;;;;;;;23.80;11.07;;;;;;;2.98;100.00;102536.06;5032333;28;20386;-82
2022/03/16 09:21:01;;;;;;;28.80;10.90;;;;;;;3.06;100.00;102533.94;5016603;28;20037;-83
2022/03/16 09:23:31;;;;;;;25.63;11.68;;;;;;;3.28;100.00;102545.22;5016777;28;20043;-82
2022/03/16 09:25:58;;;;;;;29.65;11.95;;;;;;;3.20;100.00;102531.50;5016798;28;20076;-83
2022/03/16 09:28:24;;;;;;;26.30;9.30;;;;;;;3.36;100.00;102536.94;5032762;28;20068;-82
2022/03/16 09:30:49;;;;;;;24.40;9.17;;;;;;;3.46;100.00;102524.16;5016014;28;20037;-82
2022/03/16 09:33:15;;;;;;;29.07;9.10;;;;;;;3.02;100.00;102508.59;5015842;28;20029;-83
2022/03/16 09:35:40;;;;;;;27.83;9.57;;;;;;;3.03;100.00;102519.09;5016146;28;20498;-81
2022/03/16 09:38:05;;;;;;;27.73;9.98;;;;;;;2.96;100.00;102520.31;5015694;28;20330;-82
2022/03/16 09:40:33;;;;;;;27.07;9.63;;;;;;;3.08;100.00;102527.66;5031797;28;20041;-83
2022/03/16 09:42:59;;;;;;;22.50;9.32;;;;;;;3.38;100.00;102529.81;5032282;28;20683;-83
2022/03/16 09:45:29;;;;;;;28.00;11.00;;;;;;;3.21;100.00;102516.53;5031282;28;20029;-82
2022/03/16 09:47:55;;;;;;;26.30;10.45;;;;;;;3.42;100.00;102541.06;5015057;28;20041;-83
2022/03/16 09:50:20;;;;;;;21.55;8.52;;;;;;;3.44;100.00;102518.09;5015878;28;20029;-82
2022/03/16 09:52:47;;;;;;;23.13;7.47;;;;;;;3.88;100.00;102538.84;5031897;28;20068;-82
2022/03/16 09:55:17;;;;;;;23.20;8.32;;;;;;;3.66;100.00;102534.63;5031981;28;20022;-82
2022/03/16 09:57:43;;;;;;;26.35;8.48;;;;;;;4.08;100.00;102532.59;5015122;28;20065;-81
2022/03/16 10:00:12;;;;;;;20.77;7.97;;;;;;;4.30;100.00;102527.06;5014502;28;20048;-83
2022/03/16 10:02:40;;;;;;;22.67;8.38;;;;;;;3.95;100.00;102513.84;5031691;28;20069;-85
2022/03/16 10:05:08;;;;;;;25.05;9.45;;;;;;;3.91;100.00;102530.78;5031243;28;20021;-84
2022/03/16 10:07:36;;;;;;;25.88;10.57;;;;;;;3.92;100.00;102528.06;5015563;28;20025;-82
2022/03/16 10:15:23;;;;;;;23.77;8.55;;;;;;;4.33;100.00;102516.34;5043884;28;20052;-75
2022/03/16 10:17:56;;;;;;;23.40;9.25;;;;;;;4.33;100.00;102517.22;5049137;28;20474;-75
2022/03/16 10:20:32;;;;;;;23.70;7.57;;;;;;;4.28;100.00;102523.66;5031792;28;20946;-76
2022/03/16 10:23:03;;;;;;;20.27;8.20;;;;;;;4.12;100.00;102526.22;5050329;28;20040;-76
2022/03/16 10:25:35;;;;;;;21.88;7.10;;;;;;;4.41;100.00;102527.38;5032017;28;20437;-75
2022/03/16 10:28:10;;;;;;;16.77;7.43;;;;;;;4.84;100.00;102541.84;5032044;28;20033;-76
2022/03/16 10:30:56;;;;;;;19.98;6.90;;;;;;;4.35;100.00;102525.91;5014947;28;20047;-75
2022/03/16 10:33:32;;;;;;;18.95;6.97;;;;;;;4.10;100.00;102528.09;5031549;28;20163;-76
2022/03/16 10:36:03;;;;;;;;;;;;;;;4.06;100.00;102532.66;5032161;28;20076;-76
2022/03/16 10:38:36;;;;;;;20.17;6.30;;;;;;;4.10;100.00;102534.25;5049632;28;19912;-76
2022/03/16 10:46:55;;;;;;;19.02;7.07;;;;;;;4.63;100.00;102541.19;5031418;28;20167;-76
2022/03/16 10:49:22;;;;;;;16.35;7.53;;;;;;;5.19;100.00;102543.56;5031439;28;20013;-76
2022/03/16 10:52:02;;;;;;;21.05;6.65;;;;;;;5.63;100.00;102537.59;5032023;28;20037;-75
2022/03/16 10:54:29;;;;;;;19.35;6.57;;;;;;;5.64;100.00;102534.00;5031760;28;20398;-75
2022/03/16 10:56:55;;;;;;;14.57;6.43;;;;;;;5.89;100.00;102529.00;5031456;28;20025;-76
2022/03/16 10:59:27;;;;;;;16.08;7.13;;;;;;;5.93;100.00;102521.75;5030961;28;20086;-76
2022/03/16 11:01:54;;;;;;;15.52;5.70;;;;;;;5.34;100.00;102505.66;5031241;28;20041;-76
2022/03/16 11:04:21;;;;;;;15.15;5.88;;;;;;;5.39;100.00;102500.09;5049416;28;20025;-76
2022/03/16 11:06:46;;;;;;;18.02;6.28;;;;;;;5.74;100.00;102506.03;5049096;28;20064;-76
2022/03/16 11:09:15;;;;;;;20.23;6.97;;;;;;;5.46;100.00;102494.34;5031085;28;20055;-76
2022/03/16 11:14:27;;;;;;;21.13;8.95;;;;;;;4.90;100.00;102506.28;5048893;28;20025;-76
2022/03/16 11:16:53;;;;;;;18.10;6.78;;;;;;;5.03;100.00;102515.28;5031288;28;20028;-76
2022/03/16 11:19:19;;;;;;;17.95;7.70;;;;;;;5.64;100.00;102523.38;5030963;28;20115;-76